BAW910N EGLL-EDDF
Flight info
| Callsign | BAW910N |
|---|---|
| Flight time | 1h 9m |
| Altitude | 35000 |
| Route | BPK Q295 MATCH DCT REDFA DCT TACHA DCT NOLRU DCT DIXAT DIXAT1A |
| Aircraft | A321/M-SDE3FGHIRWY/LB1 |
Departure
| Time | 2026-05-04 15:30 |
|---|---|
| Airport | London Heathrow Airport (EGLL) |
Arrival
| Time | 2026-05-04 16:40 |
|---|---|
| Airport | Frankfurt Main Airport (EDDF) |
| Time | Latitude | Longitude | Altitude | Speed | Heading |
|---|---|---|---|---|---|
| 2026-05-04 15:14 | 51.46877 | -0.48642 | 88 ft | 0 kts | 90° |
| 2026-05-04 15:15 | 51.46877 | -0.48641 | 88 ft | 1 kts | 90° |
| 2026-05-04 15:16 | 51.46877 | -0.48598 | 90 ft | 3 kts | 90° |
| 2026-05-04 15:16 | 51.46877 | -0.48554 | 90 ft | 5 kts | 90° |
| 2026-05-04 15:16 | 51.46916 | -0.48467 | 87 ft | 6 kts | 6° |
| 2026-05-04 15:17 | 51.46962 | -0.48471 | 89 ft | 7 kts | 358° |
| 2026-05-04 15:17 | 51.47081 | -0.48474 | 86 ft | 10 kts | 0° |
| 2026-05-04 15:17 | 51.47153 | -0.48473 | 86 ft | 11 kts | 0° |
| 2026-05-04 15:18 | 51.47233 | -0.48473 | 86 ft | 12 kts | 360° |
| 2026-05-04 15:18 | 51.47319 | -0.48473 | 86 ft | 13 kts | 360° |
| 2026-05-04 15:18 | 51.47413 | -0.48474 | 86 ft | 14 kts | 359° |
| 2026-05-04 15:19 | 51.47558 | -0.48466 | 88 ft | 7 kts | 24° |
| 2026-05-04 15:19 | 51.47577 | -0.48396 | 89 ft | 8 kts | 86° |
| 2026-05-04 15:19 | 51.47578 | -0.48194 | 87 ft | 10 kts | 90° |
| 2026-05-04 15:20 | 51.47578 | -0.48073 | 88 ft | 11 kts | 90° |
| 2026-05-04 15:20 | 51.47578 | -0.47938 | 89 ft | 13 kts | 90° |
| 2026-05-04 15:20 | 51.47578 | -0.47791 | 89 ft | 14 kts | 90° |
| 2026-05-04 15:20 | 51.47581 | -0.47633 | 90 ft | 15 kts | 89° |
| 2026-05-04 15:21 | 51.47582 | -0.47465 | 90 ft | 16 kts | 90° |
| 2026-05-04 15:21 | 51.47580 | -0.47286 | 90 ft | 16 kts | 90° |
| 2026-05-04 15:21 | 51.47583 | -0.46905 | 87 ft | 18 kts | 88° |
| 2026-05-04 15:22 | 51.47591 | -0.46703 | 86 ft | 19 kts | 88° |
| 2026-05-04 15:22 | 51.47593 | -0.46489 | 86 ft | 19 kts | 89° |
| 2026-05-04 15:22 | 51.47596 | -0.46039 | 88 ft | 21 kts | 90° |
| 2026-05-04 15:23 | 51.47595 | -0.45801 | 87 ft | 22 kts | 90° |
| 2026-05-04 15:23 | 51.47596 | -0.45559 | 86 ft | 22 kts | 90° |
| 2026-05-04 15:23 | 51.47597 | -0.45309 | 86 ft | 23 kts | 89° |
| 2026-05-04 15:23 | 51.47598 | -0.45056 | 86 ft | 21 kts | 89° |
| 2026-05-04 15:24 | 51.47599 | -0.44620 | 86 ft | 20 kts | 90° |
| 2026-05-04 15:24 | 51.47592 | -0.44169 | 86 ft | 16 kts | 90° |
| 2026-05-04 15:25 | 51.47592 | -0.44033 | 86 ft | 13 kts | 89° |
| 2026-05-04 15:25 | 51.47593 | -0.43887 | 86 ft | 14 kts | 89° |
| 2026-05-04 15:25 | 51.47594 | -0.43731 | 88 ft | 14 kts | 91° |
| 2026-05-04 15:26 | 51.47604 | -0.43557 | 89 ft | 1 kts | 65° |
| 2026-05-04 15:26 | 51.47608 | -0.43549 | 88 ft | 0 kts | 49° |
| 2026-05-04 15:26 | 51.47611 | -0.43544 | 91 ft | 1 kts | 49° |
| 2026-05-04 15:27 | 51.47620 | -0.43528 | 89 ft | 3 kts | 49° |
| 2026-05-04 15:27 | 51.47655 | -0.43461 | 86 ft | 5 kts | 53° |
| 2026-05-04 15:28 | 51.47712 | -0.43363 | 90 ft | 6 kts | 14° |
| 2026-05-04 15:28 | 51.47757 | -0.43359 | 89 ft | 7 kts | 352° |
| 2026-05-04 15:28 | 51.47770 | -0.43443 | 87 ft | 0 kts | 265° |
| 2026-05-04 15:30 | 51.47759 | -0.46061 | 89 ft | 169 kts | 269° |
| 2026-05-04 15:30 | 51.47700 | -0.52237 | 1846 ft | 197 kts | 270° |
| 2026-05-04 15:31 | 51.48407 | -0.56860 | 2407 ft | 240 kts | 299° |
| 2026-05-04 15:31 | 51.49206 | -0.59347 | 2856 ft | 257 kts | 300° |
| 2026-05-04 15:32 | 51.52877 | -0.65218 | 5048 ft | 268 kts | 354° |
| 2026-05-04 15:32 | 51.56503 | -0.64069 | 5964 ft | 275 kts | 39° |
| 2026-05-04 15:33 | 51.58826 | -0.59177 | 6010 ft | 278 kts | 55° |
| 2026-05-04 15:34 | 51.62336 | -0.51599 | 7385 ft | 287 kts | 59° |
| 2026-05-04 15:34 | 51.63272 | -0.48765 | 8074 ft | 289 kts | 64° |
| 2026-05-04 15:34 | 51.65096 | -0.42909 | 9396 ft | 296 kts | 64° |
| 2026-05-04 15:35 | 51.66973 | -0.36808 | 10369 ft | 319 kts | 64° |
| 2026-05-04 15:35 | 51.67980 | -0.33531 | 10496 ft | 340 kts | 64° |
| 2026-05-04 15:35 | 51.69058 | -0.30026 | 10751 ft | 355 kts | 64° |
| 2026-05-04 15:36 | 51.71279 | -0.22787 | 11874 ft | 363 kts | 64° |
| 2026-05-04 15:36 | 51.72401 | -0.19119 | 12442 ft | 366 kts | 64° |
| 2026-05-04 15:36 | 51.73520 | -0.15450 | 13054 ft | 369 kts | 64° |
| 2026-05-04 15:37 | 51.74588 | -0.11657 | 13620 ft | 373 kts | 70° |
| 2026-05-04 15:37 | 51.75245 | -0.07574 | 14198 ft | 375 kts | 82° |
| 2026-05-04 15:37 | 51.75591 | -0.03390 | 14748 ft | 378 kts | 83° |
| 2026-05-04 15:37 | 51.75818 | -0.00598 | 15100 ft | 379 kts | 83° |
| 2026-05-04 15:38 | 51.76223 | 0.03021 | 15484 ft | 382 kts | 77° |
| 2026-05-04 15:38 | 51.76764 | 0.07213 | 16041 ft | 383 kts | 82° |
| 2026-05-04 15:38 | 51.77119 | 0.11449 | 16563 ft | 385 kts | 85° |
| 2026-05-04 15:38 | 51.77390 | 0.15835 | 17108 ft | 387 kts | 86° |
| 2026-05-04 15:39 | 51.77635 | 0.20126 | 17619 ft | 389 kts | 86° |
| 2026-05-04 15:39 | 51.77918 | 0.24500 | 18136 ft | 392 kts | 83° |
| 2026-05-04 15:39 | 51.79182 | 0.33162 | 18989 ft | 399 kts | 77° |
| 2026-05-04 15:40 | 51.79882 | 0.37491 | 19387 ft | 402 kts | 77° |
| 2026-05-04 15:40 | 51.80595 | 0.41864 | 19784 ft | 405 kts | 77° |
| 2026-05-04 15:40 | 51.81312 | 0.46271 | 20172 ft | 408 kts | 77° |
| 2026-05-04 15:40 | 51.82030 | 0.50727 | 20561 ft | 411 kts | 77° |
| 2026-05-04 15:41 | 51.82746 | 0.55226 | 20953 ft | 414 kts | 77° |
| 2026-05-04 15:41 | 51.83462 | 0.59775 | 21334 ft | 417 kts | 77° |
| 2026-05-04 15:41 | 51.84166 | 0.64283 | 21706 ft | 420 kts | 77° |
| 2026-05-04 15:41 | 51.84880 | 0.68856 | 22108 ft | 422 kts | 77° |
| 2026-05-04 15:42 | 51.85606 | 0.73507 | 22526 ft | 425 kts | 77° |
| 2026-05-04 15:42 | 51.86335 | 0.78188 | 22932 ft | 429 kts | 77° |
| 2026-05-04 15:42 | 51.87065 | 0.82890 | 23317 ft | 431 kts | 77° |
| 2026-05-04 15:42 | 51.87796 | 0.87630 | 23674 ft | 434 kts | 77° |
| 2026-05-04 15:43 | 51.88504 | 0.92247 | 24009 ft | 437 kts | 77° |
| 2026-05-04 15:43 | 51.89252 | 0.97122 | 24365 ft | 439 kts | 77° |
| 2026-05-04 15:43 | 51.89990 | 1.01921 | 24723 ft | 440 kts | 77° |
| 2026-05-04 15:43 | 51.90731 | 1.06752 | 25073 ft | 442 kts | 77° |
| 2026-05-04 15:44 | 51.91474 | 1.11610 | 25399 ft | 444 kts | 77° |
| 2026-05-04 15:44 | 51.92207 | 1.16412 | 25698 ft | 446 kts | 77° |
| 2026-05-04 15:44 | 51.92947 | 1.21296 | 26035 ft | 448 kts | 77° |
| 2026-05-04 15:44 | 51.93705 | 1.26333 | 26361 ft | 450 kts | 77° |
| 2026-05-04 15:45 | 51.94433 | 1.31177 | 26666 ft | 452 kts | 77° |
| 2026-05-04 15:45 | 51.95182 | 1.36155 | 26985 ft | 454 kts | 77° |
| 2026-05-04 15:45 | 51.95930 | 1.41132 | 27291 ft | 456 kts | 78° |
| 2026-05-04 15:45 | 51.96679 | 1.46139 | 27594 ft | 458 kts | 78° |
| 2026-05-04 15:46 | 51.97429 | 1.51170 | 27898 ft | 459 kts | 78° |
| 2026-05-04 15:46 | 51.98178 | 1.56225 | 28213 ft | 461 kts | 78° |
| 2026-05-04 15:46 | 51.98927 | 1.61301 | 28518 ft | 463 kts | 78° |
| 2026-05-04 15:46 | 51.99667 | 1.66343 | 28807 ft | 465 kts | 78° |
| 2026-05-04 15:47 | 52.00416 | 1.71464 | 29079 ft | 467 kts | 78° |
| 2026-05-04 15:47 | 52.01166 | 1.76597 | 29338 ft | 468 kts | 78° |
| 2026-05-04 15:47 | 52.01919 | 1.81759 | 29589 ft | 470 kts | 78° |
| 2026-05-04 15:47 | 52.02673 | 1.86931 | 29832 ft | 471 kts | 78° |
| 2026-05-04 15:48 | 52.03428 | 1.92138 | 30055 ft | 473 kts | 78° |
| 2026-05-04 15:48 | 52.04178 | 1.97323 | 30275 ft | 474 kts | 79° |
| 2026-05-04 15:48 | 52.05674 | 2.07725 | 30742 ft | 474 kts | 79° |
| 2026-05-04 15:49 | 52.06423 | 2.12964 | 30989 ft | 474 kts | 79° |
| 2026-05-04 15:49 | 52.07170 | 2.18191 | 31242 ft | 474 kts | 79° |
| 2026-05-04 15:49 | 52.07906 | 2.23367 | 31489 ft | 474 kts | 79° |
| 2026-05-04 15:49 | 52.08646 | 2.28601 | 31751 ft | 474 kts | 79° |
| 2026-05-04 15:50 | 52.09383 | 2.33827 | 32002 ft | 473 kts | 79° |
| 2026-05-04 15:50 | 52.10116 | 2.39050 | 32256 ft | 473 kts | 79° |
| 2026-05-04 15:50 | 52.10845 | 2.44286 | 32521 ft | 473 kts | 79° |
| 2026-05-04 15:50 | 52.11579 | 2.49506 | 32712 ft | 474 kts | 79° |
| 2026-05-04 15:51 | 52.12422 | 2.54701 | 32921 ft | 475 kts | 76° |
| 2026-05-04 15:51 | 52.13374 | 2.59808 | 33145 ft | 476 kts | 75° |
| 2026-05-04 15:51 | 52.14404 | 2.64931 | 33380 ft | 476 kts | 74° |
| 2026-05-04 15:51 | 52.15462 | 2.70072 | 33618 ft | 476 kts | 74° |
| 2026-05-04 15:52 | 52.16150 | 2.73461 | 33783 ft | 476 kts | 74° |
| 2026-05-04 15:52 | 52.17492 | 2.80274 | 34078 ft | 476 kts | 75° |
| 2026-05-04 15:52 | 52.18155 | 2.83754 | 34212 ft | 475 kts | 75° |
| 2026-05-04 15:52 | 52.19117 | 2.88902 | 34409 ft | 475 kts | 76° |
| 2026-05-04 15:53 | 52.20378 | 2.95746 | 34650 ft | 474 kts | 76° |
| 2026-05-04 15:53 | 52.21001 | 2.99133 | 34749 ft | 475 kts | 76° |
| 2026-05-04 15:53 | 52.21958 | 3.04342 | 34913 ft | 476 kts | 76° |
| 2026-05-04 15:53 | 52.23225 | 3.11214 | 35004 ft | 475 kts | 76° |
| 2026-05-04 15:54 | 52.24356 | 3.19950 | 35026 ft | 469 kts | 89° |
| 2026-05-04 15:54 | 52.23887 | 3.30411 | 35019 ft | 461 kts | 107° |
| 2026-05-04 15:55 | 52.21785 | 3.40193 | 35022 ft | 454 kts | 116° |
| 2026-05-04 15:55 | 52.19484 | 3.49776 | 35033 ft | 454 kts | 116° |
| 2026-05-04 15:56 | 52.17189 | 3.59327 | 35021 ft | 455 kts | 116° |
| 2026-05-04 15:56 | 52.14866 | 3.68945 | 35027 ft | 455 kts | 116° |
| 2026-05-04 15:57 | 52.12545 | 3.78499 | 35021 ft | 456 kts | 116° |
| 2026-05-04 15:57 | 52.10205 | 3.88107 | 35022 ft | 456 kts | 116° |
| 2026-05-04 15:58 | 52.07869 | 3.97659 | 35000 ft | 455 kts | 117° |
| 2026-05-04 15:58 | 52.05517 | 4.07240 | 35007 ft | 455 kts | 117° |
| 2026-05-04 15:59 | 52.03159 | 4.16766 | 35003 ft | 455 kts | 117° |
| 2026-05-04 15:59 | 52.00801 | 4.26247 | 34997 ft | 454 kts | 117° |
| 2026-05-04 16:00 | 51.98425 | 4.35773 | 34992 ft | 454 kts | 117° |
| 2026-05-04 16:00 | 51.96056 | 4.45251 | 34985 ft | 454 kts | 117° |
| 2026-05-04 16:01 | 51.93678 | 4.54723 | 34999 ft | 452 kts | 117° |
| 2026-05-04 16:01 | 51.91299 | 4.64174 | 34999 ft | 451 kts | 117° |
| 2026-05-04 16:02 | 51.88917 | 4.73575 | 34994 ft | 451 kts | 117° |
| 2026-05-04 16:03 | 51.85317 | 4.87662 | 34980 ft | 451 kts | 117° |
| 2026-05-04 16:03 | 51.82929 | 4.96981 | 34978 ft | 451 kts | 117° |
| 2026-05-04 16:04 | 51.80519 | 5.06368 | 34986 ft | 451 kts | 117° |
| 2026-05-04 16:04 | 51.76915 | 5.20367 | 34986 ft | 452 kts | 118° |
| 2026-05-04 16:05 | 51.74465 | 5.29791 | 34990 ft | 452 kts | 118° |
| 2026-05-04 16:06 | 51.70854 | 5.43547 | 34970 ft | 452 kts | 118° |
| 2026-05-04 16:07 | 51.65925 | 5.62300 | 34976 ft | 453 kts | 118° |
| 2026-05-04 16:08 | 51.60995 | 5.80889 | 34977 ft | 452 kts | 118° |
| 2026-05-04 16:09 | 51.54770 | 6.04165 | 34988 ft | 452 kts | 118° |
| 2026-05-04 16:10 | 51.49763 | 6.22703 | 34991 ft | 453 kts | 118° |
| 2026-05-04 16:11 | 51.45144 | 6.41563 | 34979 ft | 456 kts | 116° |
| 2026-05-04 16:12 | 51.38136 | 6.70004 | 35004 ft | 457 kts | 117° |
| 2026-05-04 16:13 | 51.35776 | 6.79430 | 33815 ft | 465 kts | 117° |
| 2026-05-04 16:13 | 51.33332 | 6.89137 | 32010 ft | 467 kts | 116° |
| 2026-05-04 16:14 | 51.30932 | 6.98681 | 30964 ft | 458 kts | 116° |
| 2026-05-04 16:14 | 51.28849 | 7.06798 | 29995 ft | 449 kts | 120° |
| 2026-05-04 16:15 | 51.23300 | 7.17378 | 28493 ft | 413 kts | 148° |
| 2026-05-04 16:16 | 51.18417 | 7.21732 | 27551 ft | 396 kts | 158° |
| 2026-05-04 16:16 | 51.11141 | 7.27453 | 26166 ft | 382 kts | 157° |
| 2026-05-04 16:17 | 51.06460 | 7.31265 | 25282 ft | 374 kts | 156° |
| 2026-05-04 16:18 | 50.99523 | 7.37045 | 23928 ft | 379 kts | 155° |
| 2026-05-04 16:18 | 50.97178 | 7.38983 | 23446 ft | 378 kts | 155° |
| 2026-05-04 16:19 | 50.90258 | 7.44652 | 22049 ft | 371 kts | 155° |
| 2026-05-04 16:19 | 50.85711 | 7.48370 | 21159 ft | 365 kts | 155° |
| 2026-05-04 16:20 | 50.78996 | 7.53863 | 19831 ft | 357 kts | 155° |
| 2026-05-04 16:20 | 50.74605 | 7.57433 | 18973 ft | 352 kts | 155° |
| 2026-05-04 16:21 | 50.68149 | 7.62663 | 17655 ft | 344 kts | 155° |
| 2026-05-04 16:22 | 50.63934 | 7.66073 | 16829 ft | 340 kts | 155° |
| 2026-05-04 16:22 | 50.57661 | 7.71153 | 15614 ft | 335 kts | 155° |
| 2026-05-04 16:23 | 50.51517 | 7.76099 | 14478 ft | 328 kts | 155° |
| 2026-05-04 16:24 | 50.43492 | 7.82626 | 12969 ft | 322 kts | 149° |
| 2026-05-04 16:25 | 50.39957 | 7.86914 | 12196 ft | 320 kts | 144° |
| 2026-05-04 16:26 | 50.33068 | 7.95466 | 10683 ft | 313 kts | 146° |
| 2026-05-04 16:26 | 50.28122 | 8.01588 | 9969 ft | 286 kts | 146° |
| 2026-05-04 16:27 | 50.25325 | 8.05863 | 9938 ft | 286 kts | 132° |
| 2026-05-04 16:28 | 50.21701 | 8.13212 | 9695 ft | 286 kts | 132° |
| 2026-05-04 16:28 | 50.18055 | 8.20581 | 9480 ft | 285 kts | 132° |
| 2026-05-04 16:29 | 50.13231 | 8.30322 | 9184 ft | 281 kts | 131° |
| 2026-05-04 16:30 | 50.10558 | 8.37695 | 8995 ft | 292 kts | 102° |
| 2026-05-04 16:31 | 50.11210 | 8.43980 | 8817 ft | 299 kts | 72° |
| 2026-05-04 16:31 | 50.13374 | 8.52903 | 7961 ft | 287 kts | 72° |
| 2026-05-04 16:32 | 50.15403 | 8.61422 | 7152 ft | 272 kts | 73° |
| 2026-05-04 16:33 | 50.16688 | 8.66835 | 6600 ft | 257 kts | 73° |
| 2026-05-04 16:33 | 50.17708 | 8.71141 | 6098 ft | 250 kts | 73° |
| 2026-05-04 16:34 | 50.18888 | 8.76123 | 5489 ft | 239 kts | 72° |
| 2026-05-04 16:34 | 50.19322 | 8.79382 | 5075 ft | 227 kts | 101° |
| 2026-05-04 16:35 | 50.16733 | 8.83077 | 5020 ft | 189 kts | 163° |
| 2026-05-04 16:35 | 50.13293 | 8.81903 | 4803 ft | 181 kts | 223° |
| 2026-05-04 16:36 | 50.12368 | 8.80535 | 4449 ft | 182 kts | 224° |
| 2026-05-04 16:36 | 50.10549 | 8.77798 | 3986 ft | 182 kts | 229° |
| 2026-05-04 16:37 | 50.09526 | 8.74203 | 3346 ft | 182 kts | 252° |
| 2026-05-04 16:37 | 50.09091 | 8.72349 | 3092 ft | 184 kts | 253° |
| 2026-05-04 16:37 | 50.08205 | 8.68604 | 2558 ft | 184 kts | 252° |
| 2026-05-04 16:38 | 50.07309 | 8.64827 | 2014 ft | 192 kts | 251° |
| 2026-05-04 16:39 | 50.06074 | 8.59640 | 1278 ft | 149 kts | 252° |
| 2026-05-04 16:39 | 50.05359 | 8.56634 | 872 ft | 148 kts | 251° |
| 2026-05-04 16:40 | 50.04643 | 8.53642 | 455 ft | 148 kts | 253° |
| 2026-05-04 16:40 | 50.04095 | 8.51330 | 328 ft | 33 kts | 249° |
| 2026-05-04 16:41 | 50.03905 | 8.50915 | 325 ft | 15 kts | 219° |
| 2026-05-04 16:41 | 50.03790 | 8.50989 | 332 ft | 8 kts | 61° |
| 2026-05-04 16:42 | 50.03874 | 8.51293 | 334 ft | 12 kts | 70° |
| 2026-05-04 16:43 | 50.03935 | 8.51566 | 333 ft | 15 kts | 71° |
| 2026-05-04 16:43 | 50.04009 | 8.51880 | 336 ft | 16 kts | 69° |
| 2026-05-04 16:43 | 50.04049 | 8.52043 | 338 ft | 16 kts | 69° |
| 2026-05-04 16:44 | 50.04197 | 8.52665 | 355 ft | 15 kts | 70° |
| 2026-05-04 16:45 | 50.04265 | 8.52957 | 355 ft | 14 kts | 69° |
| 2026-05-04 16:46 | 50.04357 | 8.53331 | 372 ft | 12 kts | 69° |
| 2026-05-04 16:46 | 50.04404 | 8.53637 | 375 ft | 20 kts | 84° |
| 2026-05-04 16:47 | 50.04442 | 8.54211 | 375 ft | 32 kts | 84° |
| 2026-05-04 16:47 | 50.04369 | 8.54710 | 365 ft | 25 kts | 137° |
| 2026-05-04 16:48 | 50.04084 | 8.54901 | 352 ft | 0 kts | 159° |
| 2026-05-04 16:48 | 50.04082 | 8.54902 | 352 ft | 0 kts | 159° |
| 2026-05-04 16:50 | 50.04065 | 8.54912 | 358 ft | 4 kts | 159° |
| 2026-05-04 16:50 | 50.03978 | 8.54964 | 359 ft | 10 kts | 159° |
| 2026-05-04 16:51 | 50.03846 | 8.55083 | 349 ft | 10 kts | 102° |
| 2026-05-04 16:51 | 50.03866 | 8.55187 | 351 ft | 11 kts | 69° |
| 2026-05-04 16:51 | 50.03926 | 8.55433 | 354 ft | 13 kts | 74° |
| 2026-05-04 16:52 | 50.03996 | 8.55733 | 358 ft | 16 kts | 69° |
| 2026-05-04 16:52 | 50.04036 | 8.55898 | 352 ft | 17 kts | 70° |
| 2026-05-04 16:53 | 50.04120 | 8.56249 | 359 ft | 18 kts | 69° |
| 2026-05-04 16:53 | 50.04230 | 8.56711 | 361 ft | 11 kts | 69° |
| 2026-05-04 16:54 | 50.04256 | 8.56819 | 364 ft | 11 kts | 69° |
| 2026-05-04 16:55 | 50.04380 | 8.57337 | 364 ft | 15 kts | 70° |
| 2026-05-04 16:55 | 50.04456 | 8.57654 | 365 ft | 16 kts | 70° |
| 2026-05-04 16:56 | 50.04524 | 8.57942 | 364 ft | 9 kts | 70° |
| 2026-05-04 16:56 | 50.04709 | 8.57960 | 362 ft | 15 kts | 338° |
| 2026-05-04 16:57 | 50.04760 | 8.57936 | 362 ft | 6 kts | 1° |
| 2026-05-04 16:57 | 50.04826 | 8.58055 | 362 ft | 9 kts | 68° |
| 2026-05-04 16:58 | 50.04896 | 8.58347 | 364 ft | 12 kts | 69° |
| 2026-05-04 16:58 | 50.04926 | 8.58474 | 361 ft | 13 kts | 70° |
| 2026-05-04 16:59 | 50.04962 | 8.58625 | 364 ft | 1 kts | 69° |
| 2026-05-04 17:00 | 50.05007 | 8.58666 | 362 ft | 3 kts | 323° |
| 2026-05-04 17:00 | 50.05046 | 8.58640 | 360 ft | 1 kts | 338° |
| 2026-05-04 17:01 | 50.05055 | 8.58635 | 362 ft | 0 kts | 339° |